Terminal Aerodrome Forecast
Issued by NWS

Home | Current Version | Previous Version | Text Only | Print | Product List | Glossary On
Versions: 1 2 3 4 5 6 7 8 9 10 11 12 13 14
000
FTUS44 KMAF 032300
TAFHOB
TAF
KHOB 032325Z 0400/0424 17014G20KT P6SM BKN100
      TEMPO 0400/0404 VRB20G30KT -TSRA BKN040CB
     FM040600 16009KT P6SM SCT100 BKN200
     FM041200 14010KT P6SM BKN010
     FM041800 14018G25KT P6SM BKN040=

USA.gov is the U.S. government's official web portal to all federal, state and local government web resources and services.